Time;durP1;ratioP1;P1;durP2;ratioP2;P2;SDS_P1;SDS_P2;PMS_P1;PMS_P2;Temp;Humidity;BMP_temperature;BMP_pressure;BME280_temperature;BME280_humidity;BME280_pressure;Samples;Min_cycle;Max_cycle;Signal;HPM_P1;HPM_P2
2023/03/20 00:02:22;;;;;;;10.53;6.73;;;13.70;1.00;;;;;;5012415;28;20434;-87
2023/03/20 00:04:49;;;;;;;12.37;7.63;;;13.60;1.00;;;;;;5013688;28;21880;-87
2023/03/20 00:07:16;;;;;;;11.40;7.63;;;13.50;1.00;;;;;;5010747;28;20524;-87
2023/03/20 00:09:47;;;;;;;10.30;6.90;;;13.60;1.00;;;;;;5015043;28;20477;-86
2023/03/20 00:12:31;;;;;;;11.17;7.40;;;13.50;1.00;;;;;;5006877;28;20469;-86
2023/03/20 00:15:01;;;;;;;11.37;6.80;;;13.40;1.00;;;;;;5011362;28;20465;-85
2023/03/20 00:17:31;;;;;;;10.27;6.50;;;13.40;1.00;;;;;;5010385;28;20442;-87
2023/03/20 00:20:00;;;;;;;14.27;8.17;;;13.30;1.00;;;;;;5008875;28;20500;-86
2023/03/20 00:22:31;;;;;;;11.27;6.93;;;13.30;1.00;;;;;;5011980;28;20545;-88
2023/03/20 00:24:58;;;;;;;9.47;6.57;;;13.30;1.00;;;;;;5017981;28;20479;-86
2023/03/20 00:27:26;;;;;;;11.87;7.60;;;13.20;1.00;;;;;;5030693;28;20409;-85
2023/03/20 00:29:55;;;;;;;11.83;6.90;;;13.20;1.00;;;;;;5036146;28;20469;-85
2023/03/20 00:32:24;;;;;;;10.80;7.03;;;13.10;1.00;;;;;;5028992;28;20482;-86
2023/03/20 00:34:53;;;;;;;9.47;7.13;;;13.20;1.00;;;;;;5028863;28;20454;-86
2023/03/20 00:37:20;;;;;;;10.60;6.77;;;13.20;1.00;;;;;;5032358;28;20549;-87
2023/03/20 00:39:47;;;;;;;14.93;7.83;;;13.10;1.00;;;;;;5031890;28;21018;-87
2023/03/20 00:42:21;;;;;;;12.00;6.70;;;13.00;1.00;;;;;;5026598;28;20444;-86
2023/03/20 00:44:52;;;;;;;10.50;6.43;;;13.00;1.00;;;;;;5025374;28;20510;-87
2023/03/20 00:47:23;;;;;;;10.13;6.33;;;12.90;1.00;;;;;;5028214;28;20950;-86
2023/03/20 00:49:53;;;;;;;9.73;7.23;;;12.80;1.00;;;;;;5028772;28;20560;-87
2023/03/20 00:52:21;;;;;;;16.43;8.10;;;12.70;1.00;;;;;;5025636;28;20551;-86
2023/03/20 00:54:48;;;;;;;10.30;7.13;;;12.70;1.00;;;;;;5027765;28;20470;-87
2023/03/20 00:57:20;;;;;;;10.93;7.33;;;12.60;1.00;;;;;;5025487;28;20448;-86
2023/03/20 00:59:54;;;;;;;14.97;8.47;;;12.60;1.00;;;;;;5028153;28;21293;-86
2023/03/20 01:02:27;;;;;;;12.17;8.47;;;12.50;1.00;;;;;;5025657;28;21184;-86
2023/03/20 01:04:55;;;;;;;13.40;8.00;;;12.40;1.00;;;;;;5026912;28;20506;-86
2023/03/20 01:07:22;;;;;;;11.53;7.67;;;12.30;1.00;;;;;;5025210;28;20431;-84
2023/03/20 01:09:49;;;;;;;10.07;6.80;;;12.30;1.00;;;;;;5025618;28;20444;-85
2023/03/20 01:12:16;;;;;;;11.60;7.87;;;12.20;1.00;;;;;;5024876;28;20452;-85
2023/03/20 01:14:44;;;;;;;10.13;6.50;;;12.20;1.00;;;;;;5022849;28;20950;-85
2023/03/20 01:17:20;;;;;;;12.00;7.50;;;12.10;1.00;;;;;;5024678;28;20432;-85
2023/03/20 01:19:49;;;;;;;11.30;8.60;;;12.10;1.00;;;;;;5026444;28;20470;-86
2023/03/20 01:22:16;;;;;;;10.27;8.03;;;12.10;1.00;;;;;;5026319;28;20456;-85
2023/03/20 01:24:43;;;;;;;14.03;8.50;;;12.10;1.00;;;;;;5028358;28;21309;-86
2023/03/20 01:27:14;;;;;;;19.77;9.20;;;12.00;1.00;;;;;;5024523;28;20517;-85
2023/03/20 01:29:41;;;;;;;13.13;8.27;;;11.90;1.00;;;;;;5032739;28;20478;-85
2023/03/20 01:32:12;;;;;;;12.60;8.00;;;12.00;1.00;;;;;;5028290;28;21000;-85
2023/03/20 01:34:39;;;;;;;11.43;7.63;;;12.00;1.00;;;;;;5024718;28;20431;-85
2023/03/20 01:37:13;;;;;;;11.40;7.97;;;12.00;1.00;;;;;;5031295;28;20470;-84
2023/03/20 01:39:41;;;;;;;11.73;8.40;;;12.00;1.00;;;;;;5030448;28;20551;-84
2023/03/20 01:42:08;;;;;;;12.07;6.93;;;12.00;1.00;;;;;;5026647;28;20660;-85
2023/03/20 01:44:37;;;;;;;12.40;7.67;;;12.00;1.00;;;;;;5026653;28;20468;-85
2023/03/20 01:47:15;;;;;;;12.47;7.90;;;12.00;1.00;;;;;;5028847;28;20419;-84
2023/03/20 01:50:25;;;;;;;11.10;8.03;;;11.90;1.00;;;;;;5020393;28;20886;-85
2023/03/20 01:53:08;;;;;;;13.00;7.90;;;11.90;1.00;;;;;;4932243;28;21377;-84
2023/03/20 01:55:38;;;;;;;12.47;8.00;;;11.90;1.00;;;;;;4949019;28;20465;-85
2023/03/20 01:58:14;;;;;;;15.50;8.70;;;11.80;1.00;;;;;;5013440;28;20415;-85
2023/03/20 02:00:41;;;;;;;12.80;8.80;;;11.80;1.00;;;;;;5018674;28;20477;-87
2023/03/20 02:03:42;;;;;;;13.43;9.17;;;11.80;1.00;;;;;;5039506;28;20431;-85
2023/03/20 02:06:14;;;;;;;12.30;9.17;;;11.70;1.00;;;;;;5023299;28;20462;-87
2023/03/20 02:08:51;;;;;;;12.80;10.20;;;11.70;1.00;;;;;;5026726;28;21166;-85
2023/03/20 02:11:27;;;;;;;14.70;9.67;;;11.70;1.00;;;;;;5025259;28;20459;-86
2023/03/20 02:14:06;;;;;;;13.37;9.23;;;11.80;1.00;;;;;;5028403;28;21758;-86
2023/03/20 02:16:34;;;;;;;16.43;9.17;;;11.80;1.00;;;;;;5026778;28;20449;-86
2023/03/20 02:19:16;;;;;;;12.43;10.07;;;11.70;1.00;;;;;;5028843;28;21000;-86
2023/03/20 02:22:15;;;;;;;14.40;9.10;;;11.70;1.00;;;;;;5000135;28;20471;-87
2023/03/20 02:25:36;;;;;;;13.27;9.50;;;11.70;1.00;;;;;;5000552;28;20489;-86
2023/03/20 02:28:29;;;;;;;13.57;10.20;;;11.70;1.00;;;;;;5026886;28;21006;-87
2023/03/20 02:31:24;;;;;;;14.37;9.10;;;11.70;1.00;;;;;;5018935;28;20454;-86
2023/03/20 02:34:18;;;;;;;12.77;9.40;;;11.70;1.00;;;;;;5028016;28;20871;-86
2023/03/20 02:37:18;;;;;;;20.83;11.63;;;11.60;1.00;;;;;;5032956;28;20455;-86
2023/03/20 02:40:03;;;;;;;15.40;11.13;;;11.50;1.00;;;;;;5024306;28;20514;-87
2023/03/20 02:42:37;;;;;;;13.70;10.90;;;11.50;1.00;;;;;;5023071;28;20469;-87
2023/03/20 02:45:14;;;;;;;13.30;10.50;;;11.40;1.00;;;;;;5030876;28;20593;-86
2023/03/20 02:47:50;;;;;;;18.70;12.33;;;11.40;1.00;;;;;;5025461;28;20472;-86
2023/03/20 02:50:23;;;;;;;13.90;10.30;;;11.30;1.00;;;;;;5028587;28;20486;-85
2023/03/20 02:53:08;;;;;;;12.27;9.40;;;11.30;1.00;;;;;;5026031;28;20499;-86
2023/03/20 02:55:43;;;;;;;12.40;9.03;;;11.30;1.00;;;;;;5026652;28;20484;-86
2023/03/20 02:58:20;;;;;;;15.97;10.13;;;11.30;1.00;;;;;;5030291;28;20473;-86
2023/03/20 03:00:51;;;;;;;12.10;8.83;;;11.40;1.00;;;;;;5028423;28;20900;-86
2023/03/20 03:03:24;;;;;;;12.93;9.10;;;11.40;1.00;;;;;;5027828;28;21197;-86
2023/03/20 03:05:58;;;;;;;12.07;8.40;;;11.50;1.00;;;;;;5025422;28;21345;-86
2023/03/20 03:08:41;;;;;;;12.83;8.90;;;11.60;1.00;;;;;;5016026;28;20563;-85
2023/03/20 03:11:12;;;;;;;11.20;8.30;;;11.70;1.00;;;;;;5002519;28;20475;-85
2023/03/20 03:13:45;;;;;;;11.20;7.10;;;11.80;1.00;;;;;;5028535;28;20439;-86
2023/03/20 03:16:27;;;;;;;11.87;8.00;;;11.80;1.00;;;;;;5026640;28;20439;-85
2023/03/20 03:19:05;;;;;;;13.10;7.93;;;11.90;1.00;;;;;;5026679;28;20524;-85
2023/03/20 03:21:34;;;;;;;13.50;7.93;;;11.90;1.00;;;;;;5012540;28;20475;-86
2023/03/20 03:24:06;;;;;;;11.57;7.73;;;11.90;1.00;;;;;;5027205;28;21214;-86
2023/03/20 03:26:48;;;;;;;11.80;7.00;;;12.00;1.00;;;;;;5012495;28;20962;-86
2023/03/20 03:29:18;;;;;;;14.20;7.67;;;12.00;1.00;;;;;;5028482;28;20475;-87
2023/03/20 03:31:55;;;;;;;10.00;7.90;;;12.10;1.00;;;;;;5029290;28;20511;-85
2023/03/20 03:34:24;;;;;;;12.57;7.30;;;12.00;1.00;;;;;;5014651;28;20468;-86
2023/03/20 03:37:00;;;;;;;11.97;7.17;;;12.00;1.00;;;;;;5029245;28;20436;-88
2023/03/20 03:39:39;;;;;;;12.30;7.90;;;12.00;1.00;;;;;;5000868;28;20523;-85
2023/03/20 03:42:16;;;;;;;13.07;7.43;;;12.00;1.00;;;;;;5032642;28;22284;-86
2023/03/20 03:44:56;;;;;;;17.60;11.50;;;12.00;1.00;;;;;;5030949;28;20465;-86
2023/03/20 03:47:33;;;;;;;13.30;6.90;;;12.00;1.00;;;;;;5022538;28;20463;-86
2023/03/20 03:50:46;;;;;;;12.57;8.13;;;12.00;1.00;;;;;;5039476;28;20463;-86
2023/03/20 03:53:27;;;;;;;12.57;7.93;;;12.00;1.00;;;;;;5027570;28;20446;-86
2023/03/20 03:56:02;;;;;;;11.67;7.83;;;12.00;1.00;;;;;;5030455;28;20479;-86
2023/03/20 03:58:39;;;;;;;10.97;7.63;;;11.90;1.00;;;;;;5022440;28;20431;-86
2023/03/20 04:01:10;;;;;;;13.90;8.10;;;12.00;1.00;;;;;;5018239;28;20442;-86
2023/03/20 04:06:32;;;;;;;14.20;8.40;;;12.00;1.00;;;;;;5028650;28;20480;-84
2023/03/20 04:09:10;;;;;;;12.83;8.67;;;12.00;1.00;;;;;;5022957;28;20479;-85
2023/03/20 04:11:43;;;;;;;13.83;8.40;;;12.00;1.00;;;;;;5006759;28;20450;-86
2023/03/20 04:14:41;;;;;;;;;;;;;;;;;;;;;
2023/03/20 04:20:38;;;;;;;13.93;9.53;;;11.90;1.00;;;;;;5016295;28;20439;-85
2023/03/20 04:26:15;;;;;;;11.20;9.50;;;12.00;1.00;;;;;;5027424;28;20459;-85
2023/03/20 04:28:42;;;;;;;19.43;10.17;;;11.90;1.00;;;;;;5007766;28;20495;-86
2023/03/20 04:31:11;;;;;;;19.93;11.77;;;11.90;1.00;;;;;;5019650;28;20456;-87
2023/03/20 04:33:41;;;;;;;13.40;9.80;;;11.80;1.00;;;;;;5031440;28;20468;-86
2023/03/20 04:36:15;;;;;;;14.57;11.33;;;11.80;1.00;;;;;;5032477;28;20466;-87
2023/03/20 04:38:55;;;;;;;17.50;11.80;;;11.80;1.00;;;;;;5002925;28;20540;-86
2023/03/20 04:41:30;;;;;;;18.83;14.07;;;11.80;1.00;;;;;;5019885;28;20461;-87
2023/03/20 04:44:09;;;;;;;16.53;12.43;;;11.80;1.00;;;;;;5024922;28;20429;-85
2023/03/20 04:46:38;;;;;;;18.50;13.17;;;11.80;1.00;;;;;;5031333;28;20542;-85
2023/03/20 04:49:11;;;;;;;17.73;12.20;;;11.80;1.00;;;;;;5008808;28;20458;-84
2023/03/20 04:51:42;;;;;;;15.97;13.10;;;11.90;1.00;;;;;;5015760;28;20434;-86
2023/03/20 04:54:15;;;;;;;15.27;13.03;;;11.90;1.00;;;;;;5006007;28;21240;-85
2023/03/20 04:56:52;;;;;;;19.00;13.97;;;11.90;1.00;;;;;;5023515;28;20504;-87
2023/03/20 04:59:32;;;;;;;20.27;13.93;;;12.00;1.00;;;;;;5021920;28;20475;-87
2023/03/20 05:05:42;;;;;;;;;;;;;;;;;;;;;
2023/03/20 05:24:30;;;;;;;;;;;;;;;;;;;;;
2023/03/20 05:31:13;;;;;;;;;;;;;;;;;;;;;
2023/03/20 05:34:22;;;;;;;17.77;13.57;;;12.10;1.00;;;;;;4979677;28;50929;-85
2023/03/20 05:44:18;;;;;;;20.43;13.93;;;12.00;1.00;;;;;;4876748;29;20484;-85
2023/03/20 06:39:41;;;;;;;29.70;25.77;;;11.70;1.00;;;;;;4698122;30;20431;-87
2023/03/20 06:43:16;;;;;;;30.20;24.27;;;11.40;1.00;;;;;;4763724;29;20486;-88
2023/03/20 06:45:43;;;;;;;33.00;24.27;;;11.30;1.00;;;;;;4733205;30;20474;-83
2023/03/20 06:48:11;;;;;;;28.80;22.83;;;11.30;1.00;;;;;;4750370;30;20514;-81
2023/03/20 06:50:40;;;;;;;27.43;23.60;;;11.20;1.00;;;;;;4790936;29;20555;-81
2023/03/20 06:53:07;;;;;;;28.87;22.30;;;11.20;1.00;;;;;;4803628;29;20480;-82
2023/03/20 06:55:37;;;;;;;30.60;21.90;;;11.10;1.00;;;;;;4788951;29;20464;-81
2023/03/20 06:58:04;;;;;;;27.93;20.50;;;11.00;1.00;;;;;;4801970;29;20632;-83
2023/03/20 07:00:34;;;;;;;32.70;22.40;;;11.00;1.00;;;;;;4874155;29;20640;-89
2023/03/20 07:03:01;;;;;;;26.80;20.40;;;11.00;1.00;;;;;;4876827;29;20472;-83
2023/03/20 07:05:29;;;;;;;28.33;20.50;;;11.00;1.00;;;;;;4873467;29;20541;-82
2023/03/20 07:07:56;;;;;;;27.90;22.20;;;11.00;1.00;;;;;;4952809;28;20462;-85
2023/03/20 07:10:24;;;;;;;31.77;21.80;;;10.90;1.00;;;;;;4985387;28;21687;-85
2023/03/20 07:12:52;;;;;;;29.97;21.87;;;10.90;1.00;;;;;;5012153;28;20570;-88
2023/03/20 07:15:19;;;;;;;36.80;25.90;;;10.80;1.00;;;;;;5021305;28;21011;-87
2023/03/20 07:17:47;;;;;;;33.00;23.83;;;10.80;1.00;;;;;;5016698;28;20474;-87
2023/03/20 07:20:14;;;;;;;36.57;27.30;;;10.70;1.00;;;;;;5012147;28;20467;-86
2023/03/20 07:22:42;;;;;;;33.60;26.20;;;10.80;1.00;;;;;;5014805;28;21407;-87
2023/03/20 07:25:10;;;;;;;41.13;28.83;;;10.60;1.00;;;;;;5009770;28;20538;-85
2023/03/20 07:27:38;;;;;;;37.43;28.57;;;10.70;1.00;;;;;;5017079;28;20439;-86
2023/03/20 07:30:10;;;;;;;41.60;28.03;;;10.70;1.00;;;;;;5020008;28;20445;-87
2023/03/20 07:32:37;;;;;;;38.77;26.40;;;10.80;1.00;;;;;;5016179;28;20431;-87
2023/03/20 07:35:05;;;;;;;41.27;31.40;;;10.70;1.00;;;;;;5019314;28;20468;-90
2023/03/20 07:37:34;;;;;;;40.40;30.37;;;10.60;1.00;;;;;;5014020;28;20462;-88
2023/03/20 07:40:49;;;;;;;42.07;31.53;;;10.50;1.00;;;;;;4995916;28;21188;-85
2023/03/20 07:43:23;;;;;;;39.23;26.87;;;10.50;1.00;;;;;;5004074;28;20482;-85
2023/03/20 07:45:52;;;;;;;38.57;25.47;;;10.40;1.00;;;;;;5009518;28;20505;-83
2023/03/20 07:48:19;;;;;;;35.33;24.70;;;10.40;1.00;;;;;;4998366;28;21194;-90
2023/03/20 07:50:46;;;;;;;37.20;24.70;;;10.40;1.00;;;;;;5014702;28;20466;-90
2023/03/20 07:53:15;;;;;;;37.30;27.13;;;10.30;1.00;;;;;;5001576;28;20578;-90
2023/03/20 07:55:50;;;;;;;41.30;27.60;;;10.20;1.00;;;;;;5014842;28;20450;-89
2023/03/20 07:58:17;;;;;;;42.70;27.17;;;10.20;1.00;;;;;;5014641;28;20472;-88
2023/03/20 08:00:45;;;;;;;42.30;27.47;;;10.20;1.00;;;;;;5016842;28;20419;-89
2023/03/20 08:03:13;;;;;;;43.07;28.67;;;10.20;1.00;;;;;;5025600;28;20450;-91
2023/03/20 08:05:40;;;;;;;37.57;27.47;;;10.30;1.00;;;;;;5024285;28;20438;-89
2023/03/20 08:08:10;;;;;;;37.73;26.83;;;10.30;1.00;;;;;;5022555;28;20997;-86
2023/03/20 08:10:37;;;;;;;36.40;25.63;;;10.50;1.00;;;;;;4991887;28;21169;-89
2023/03/20 08:13:04;;;;;;;32.97;21.90;;;10.60;1.00;;;;;;5016802;28;20442;-87
2023/03/20 08:15:31;;;;;;;35.37;22.30;;;10.60;1.00;;;;;;5021514;28;20462;-90
2023/03/20 08:17:58;;;;;;;35.80;22.50;;;10.60;1.00;;;;;;5017285;28;20530;-83
2023/03/20 08:20:34;;;;;;;33.30;21.90;;;10.70;1.00;;;;;;5013171;28;20430;-89
2023/03/20 08:23:02;;;;;;;36.37;21.33;;;10.90;1.00;;;;;;5016533;28;20477;-90
2023/03/20 08:25:32;;;;;;;33.23;21.40;;;11.10;1.00;;;;;;5003918;28;20466;-87
2023/03/20 08:27:59;;;;;;;33.17;22.03;;;11.20;1.00;;;;;;5019118;28;20974;-84
2023/03/20 08:30:26;;;;;;;29.53;21.23;;;11.40;1.00;;;;;;5017919;28;20466;-90
2023/03/20 08:32:53;;;;;;;33.80;21.50;;;11.40;1.00;;;;;;5015829;28;20486;-86
2023/03/20 08:35:20;;;;;;;32.70;22.10;;;11.40;1.00;;;;;;5014667;28;20474;-88
2023/03/20 08:37:49;;;;;;;33.90;23.30;;;11.30;1.00;;;;;;5015048;28;20455;-89
2023/03/20 08:40:16;;;;;;;33.40;21.20;;;11.10;1.00;;;;;;5016009;28;20533;-89
2023/03/20 08:42:43;;;;;;;30.53;21.53;;;11.00;1.00;;;;;;5017783;28;20522;-87
2023/03/20 08:45:11;;;;;;;31.20;18.53;;;10.90;1.00;;;;;;5018999;28;20438;-81
2023/03/20 08:47:38;;;;;;;32.97;20.30;;;11.00;1.00;;;;;;5018597;28;20506;-90
2023/03/20 08:50:06;;;;;;;34.07;20.77;;;11.10;1.00;;;;;;5019165;28;20504;-88
2023/03/20 08:52:33;;;;;;;37.23;23.93;;;11.30;1.00;;;;;;5018710;28;21277;-89
2023/03/20 08:55:01;;;;;;;32.40;22.20;;;11.40;1.00;;;;;;5016363;28;20518;-89
2023/03/20 08:57:28;;;;;;;42.80;27.77;;;11.70;1.00;;;;;;5011166;28;20467;-89
2023/03/20 08:59:55;;;;;;;33.53;24.17;;;12.10;1.00;;;;;;5009158;28;21139;-88
2023/03/20 09:02:22;;;;;;;36.57;25.23;;;12.50;1.00;;;;;;5011236;28;20441;-89
2023/03/20 09:04:48;;;;;;;32.07;22.20;;;13.20;1.00;;;;;;5015529;28;20453;-88
2023/03/20 09:07:16;;;;;;;31.77;22.63;;;13.60;1.00;;;;;;5015212;28;20469;-87
2023/03/20 09:09:43;;;;;;;31.73;21.80;;;13.90;1.00;;;;;;4995400;28;20491;-90
2023/03/20 09:12:12;;;;;;;27.83;19.20;;;14.20;1.00;;;;;;5005271;28;20488;-86
2023/03/20 09:14:39;;;;;;;27.20;18.87;;;14.20;1.00;;;;;;5009201;28;20434;-87
2023/03/20 09:17:08;;;;;;;24.77;18.07;;;14.20;1.00;;;;;;5008725;28;20894;-86
2023/03/20 09:19:38;;;;;;;25.40;17.70;;;14.20;1.00;;;;;;5009740;28;20410;-90
2023/03/20 09:22:08;;;;;;;27.87;19.47;;;14.10;1.00;;;;;;5012849;28;20978;-80
2023/03/20 09:24:36;;;;;;;31.80;19.90;;;14.00;1.00;;;;;;5005622;28;20860;-79
2023/03/20 09:27:03;;;;;;;28.83;20.40;;;14.10;1.00;;;;;;5000952;28;20500;-79
2023/03/20 09:29:31;;;;;;;25.83;17.90;;;14.00;1.00;;;;;;5005204;28;20461;-80
2023/03/20 09:31:58;;;;;;;26.70;17.33;;;14.20;1.00;;;;;;5007001;28;20571;-80
2023/03/20 09:34:29;;;;;;;28.10;18.03;;;14.10;1.00;;;;;;5001062;28;20469;-80
2023/03/20 09:36:56;;;;;;;23.93;16.73;;;14.00;1.00;;;;;;4999802;28;20663;-79
2023/03/20 09:39:24;;;;;;;25.13;16.87;;;14.10;1.00;;;;;;5002525;28;20457;-81
2023/03/20 09:41:52;;;;;;;25.30;15.83;;;14.30;1.00;;;;;;5007292;28;21689;-81
2023/03/20 09:44:40;;;;;;;28.30;16.33;;;14.70;1.00;;;;;;4995351;28;20450;-84
2023/03/20 09:47:16;;;;;;;21.80;14.60;;;15.20;1.00;;;;;;5000229;28;20434;-82
2023/03/20 09:49:50;;;;;;;21.43;14.63;;;15.40;1.00;;;;;;5002444;28;20493;-82
2023/03/20 09:52:22;;;;;;;19.07;13.50;;;15.50;1.00;;;;;;5002569;28;20537;-83
2023/03/20 09:54:53;;;;;;;24.17;14.37;;;15.50;1.00;;;;;;5005846;28;21501;-82
2023/03/20 09:57:24;;;;;;;20.57;13.00;;;15.40;1.00;;;;;;5004301;28;20489;-80
2023/03/20 09:59:56;;;;;;;20.27;13.43;;;15.30;1.00;;;;;;5003924;28;20466;-81
2023/03/20 10:02:36;;;;;;;18.93;13.57;;;15.20;1.00;;;;;;5003284;28;20465;-80
2023/03/20 10:05:14;;;;;;;21.23;14.93;;;15.00;1.00;;;;;;5007144;28;20943;-79
2023/03/20 10:07:41;;;;;;;19.53;13.57;;;14.80;1.00;;;;;;5007919;28;21017;-81
2023/03/20 10:10:15;;;;;;;19.43;13.73;;;14.60;1.00;;;;;;5003115;28;20469;-80
2023/03/20 10:12:55;;;;;;;20.67;13.73;;;14.40;1.00;;;;;;5005349;28;20581;-78
2023/03/20 10:15:36;;;;;;;22.63;14.17;;;14.30;1.00;;;;;;5001430;28;21765;-83
2023/03/20 10:18:14;;;;;;;20.53;14.00;;;14.10;1.00;;;;;;5002794;28;20467;-83
2023/03/20 10:20:45;;;;;;;22.30;13.70;;;14.00;1.00;;;;;;5012379;28;20473;-85
2023/03/20 10:23:20;;;;;;;21.50;13.40;;;13.90;1.00;;;;;;5006583;28;20563;-83
2023/03/20 10:25:51;;;;;;;19.57;12.60;;;14.00;1.00;;;;;;5006367;28;20468;-83
2023/03/20 10:28:25;;;;;;;16.97;11.20;;;14.00;1.00;;;;;;5006416;28;20531;-84
2023/03/20 10:31:01;;;;;;;17.17;10.10;;;14.20;1.00;;;;;;5003351;28;20474;-81
2023/03/20 10:33:43;;;;;;;18.77;9.57;;;14.10;1.00;;;;;;4999976;28;20492;-82
2023/03/20 10:36:32;;;;;;;16.50;9.77;;;13.90;1.00;;;;;;5006551;28;20538;-82
2023/03/20 10:39:05;;;;;;;15.37;9.70;;;13.70;1.00;;;;;;5003981;28;20849;-81
2023/03/20 10:41:37;;;;;;;16.73;10.43;;;13.60;1.00;;;;;;5003918;28;21284;-80
2023/03/20 10:44:13;;;;;;;18.93;9.90;;;13.40;1.00;;;;;;5005407;28;20590;-81
2023/03/20 10:46:54;;;;;;;13.27;8.47;;;13.30;1.00;;;;;;5007545;28;20457;-81
2023/03/20 10:49:31;;;;;;;15.13;9.20;;;13.30;1.00;;;;;;5010304;28;20469;-81
2023/03/20 10:52:03;;;;;;;16.40;9.70;;;13.30;1.00;;;;;;5006127;28;20526;-81
2023/03/20 10:54:36;;;;;;;16.60;10.17;;;13.40;1.00;;;;;;5008058;28;20995;-82
2023/03/20 10:57:05;;;;;;;13.50;8.73;;;13.40;1.00;;;;;;5012964;28;20496;-80
2023/03/20 10:59:37;;;;;;;13.17;8.70;;;13.50;1.00;;;;;;5009201;28;20453;-80
2023/03/20 11:02:11;;;;;;;13.43;8.90;;;13.50;1.00;;;;;;5007541;28;20490;-80
2023/03/20 11:04:39;;;;;;;15.63;9.53;;;13.50;1.00;;;;;;5007168;28;20481;-80
2023/03/20 11:07:13;;;;;;;16.23;8.97;;;13.50;1.00;;;;;;5003508;28;20500;-81
2023/03/20 11:09:41;;;;;;;15.97;9.70;;;13.40;1.00;;;;;;5005068;28;20500;-81
2023/03/20 11:12:17;;;;;;;13.93;8.67;;;13.30;1.00;;;;;;4989781;28;20547;-80
2023/03/20 11:14:45;;;;;;;15.87;9.43;;;13.20;1.00;;;;;;5003141;28;20510;-81
2023/03/20 11:17:12;;;;;;;12.80;8.20;;;13.10;1.00;;;;;;5005538;28;20548;-81
2023/03/20 11:19:41;;;;;;;13.53;8.20;;;13.10;1.00;;;;;;5011630;28;20550;-80
2023/03/20 11:22:21;;;;;;;14.80;8.97;;;13.10;1.00;;;;;;5007993;28;20474;-80
2023/03/20 11:24:54;;;;;;;15.77;10.40;;;13.10;1.00;;;;;;5004537;28;20487;-80
2023/03/20 11:27:26;;;;;;;16.50;9.47;;;13.30;1.00;;;;;;5003820;28;20556;-80
2023/03/20 11:29:54;;;;;;;19.63;10.30;;;13.60;1.00;;;;;;5004838;28;20548;-81
2023/03/20 11:32:28;;;;;;;20.87;9.80;;;13.90;1.00;;;;;;5003579;28;20502;-83
2023/03/20 11:34:57;;;;;;;16.50;8.57;;;13.90;1.00;;;;;;5002581;28;20473;-83
2023/03/20 11:37:27;;;;;;;15.30;9.00;;;14.00;1.00;;;;;;5006722;28;20461;-81
2023/03/20 11:39:59;;;;;;;16.03;8.60;;;14.00;1.00;;;;;;5005295;28;20457;-82
2023/03/20 11:42:29;;;;;;;13.33;8.10;;;14.20;1.00;;;;;;5009943;28;20465;-81
2023/03/20 11:45:07;;;;;;;17.77;9.30;;;14.30;1.00;;;;;;5006267;28;20482;-80
2023/03/20 11:47:36;;;;;;;16.90;8.73;;;14.50;1.00;;;;;;5007095;28;20599;-80
2023/03/20 11:50:06;;;;;;;15.80;8.03;;;14.50;1.00;;;;;;5008500;28;20462;-80
2023/03/20 11:52:36;;;;;;;16.83;9.50;;;14.40;1.00;;;;;;5004245;28;20453;-80
2023/03/20 11:55:06;;;;;;;14.00;8.50;;;14.50;1.00;;;;;;5012006;28;20666;-82
2023/03/20 11:57:36;;;;;;;12.87;8.20;;;14.70;1.00;;;;;;5008086;28;20462;-82
2023/03/20 12:00:07;;;;;;;14.40;8.67;;;14.60;1.00;;;;;;5005645;28;20503;-81
2023/03/20 12:02:37;;;;;;;14.20;9.03;;;14.40;1.00;;;;;;5008378;28;20582;-80
2023/03/20 12:05:20;;;;;;;13.87;8.80;;;14.10;1.00;;;;;;5007452;28;20586;-82
2023/03/20 12:07:49;;;;;;;15.10;9.60;;;14.00;1.00;;;;;;5008583;28;20467;-81
2023/03/20 12:10:18;;;;;;;14.60;9.20;;;13.80;1.00;;;;;;5004161;28;20468;-80
2023/03/20 12:12:50;;;;;;;13.20;9.20;;;13.60;1.00;;;;;;5005102;28;20425;-82
2023/03/20 12:15:23;;;;;;;14.10;9.23;;;13.50;1.00;;;;;;5004902;28;20516;-81
2023/03/20 12:17:55;;;;;;;15.23;9.10;;;13.40;1.00;;;;;;5003645;28;20479;-81
2023/03/20 12:20:33;;;;;;;16.13;9.10;;;13.50;1.00;;;;;;5006284;28;21256;-81
2023/03/20 12:23:12;;;;;;;14.20;8.50;;;13.50;1.00;;;;;;5008825;28;20477;-80
2023/03/20 12:25:44;;;;;;;16.33;9.17;;;13.50;1.00;;;;;;4994341;28;20456;-80
2023/03/20 12:28:14;;;;;;;17.23;10.03;;;13.60;1.00;;;;;;5001229;28;20461;-82
2023/03/20 12:31:01;;;;;;;16.27;8.60;;;13.70;1.00;;;;;;5001226;28;20558;-80
2023/03/20 12:33:42;;;;;;;17.23;8.97;;;13.80;1.00;;;;;;5000467;28;21064;-79
2023/03/20 12:36:15;;;;;;;16.20;9.63;;;13.70;1.00;;;;;;5007893;28;20617;-79
2023/03/20 12:38:43;;;;;;;15.27;9.30;;;13.80;1.00;;;;;;5005782;28;20967;-80
2023/03/20 12:41:14;;;;;;;14.23;9.03;;;13.80;1.00;;;;;;5009078;28;20503;-80
2023/03/20 12:44:07;;;;;;;15.40;8.67;;;13.70;1.00;;;;;;5006646;28;20463;-80
2023/03/20 12:46:43;;;;;;;16.50;10.30;;;13.70;1.00;;;;;;5000459;28;20477;-81
2023/03/20 12:49:25;;;;;;;14.60;9.13;;;13.60;1.00;;;;;;5001051;28;20459;-80
2023/03/20 12:52:05;;;;;;;12.67;8.40;;;13.60;1.00;;;;;;5001184;28;20456;-79
2023/03/20 12:55:02;;;;;;;14.57;9.63;;;13.40;1.00;;;;;;5004082;28;20460;-79
2023/03/20 12:57:36;;;;;;;14.30;9.90;;;13.40;1.00;;;;;;5002496;28;20527;-80
2023/03/20 13:00:19;;;;;;;18.80;9.97;;;13.40;1.00;;;;;;5003815;28;20523;-80
2023/03/20 13:02:59;;;;;;;18.40;10.83;;;13.60;1.00;;;;;;5001866;28;20487;-80
2023/03/20 13:05:40;;;;;;;15.20;10.00;;;13.50;1.00;;;;;;5003124;28;20512;-82
2023/03/20 13:08:31;;;;;;;17.13;11.30;;;13.60;1.00;;;;;;4996808;28;20477;-80
2023/03/20 13:11:05;;;;;;;15.27;10.10;;;13.70;1.00;;;;;;4999780;28;20460;-79
2023/03/20 13:13:40;;;;;;;16.63;10.77;;;13.80;1.00;;;;;;4998123;28;20460;-80
2023/03/20 13:16:18;;;;;;;13.47;9.63;;;13.90;1.00;;;;;;5004175;28;20479;-80
2023/03/20 13:18:54;;;;;;;15.97;10.70;;;13.90;1.00;;;;;;5008904;28;20464;-80
2023/03/20 13:21:29;;;;;;;16.00;10.83;;;13.90;1.00;;;;;;5011139;28;20500;-80
2023/03/20 13:24:09;;;;;;;24.93;10.47;;;13.90;1.00;;;;;;5005490;28;20531;-81
2023/03/20 13:26:43;;;;;;;20.23;11.40;;;13.80;1.00;;;;;;5003356;28;21116;-80
2023/03/20 13:29:16;;;;;;;17.57;10.97;;;13.90;1.00;;;;;;5012569;28;20477;-80
2023/03/20 13:31:55;;;;;;;17.07;11.10;;;13.90;1.00;;;;;;5009181;28;20449;-80
2023/03/20 13:34:31;;;;;;;15.70;10.60;;;13.90;1.00;;;;;;5012247;28;20967;-80
2023/03/20 13:37:12;;;;;;;15.63;10.87;;;13.70;1.00;;;;;;5010542;28;20945;-80
2023/03/20 13:39:44;;;;;;;18.17;11.77;;;13.80;1.00;;;;;;5010691;28;20527;-81
2023/03/20 13:42:14;;;;;;;16.37;11.47;;;14.00;1.00;;;;;;5009947;28;20483;-80
2023/03/20 13:44:44;;;;;;;16.33;10.87;;;14.10;1.00;;;;;;5008076;28;20568;-80
2023/03/20 13:47:15;;;;;;;19.80;12.23;;;14.10;1.00;;;;;;5008347;28;20465;-81
2023/03/20 13:49:50;;;;;;;17.87;12.07;;;14.10;1.00;;;;;;5004163;28;21352;-81
2023/03/20 13:52:20;;;;;;;18.10;11.83;;;14.10;1.00;;;;;;5003317;28;20468;-80
2023/03/20 13:55:02;;;;;;;20.00;13.77;;;13.90;1.00;;;;;;5007974;28;20465;-81
2023/03/20 13:57:51;;;;;;;23.73;13.50;;;14.00;1.00;;;;;;5005489;28;20470;-81
2023/03/20 14:00:26;;;;;;;19.43;12.30;;;14.00;1.00;;;;;;5006906;28;20489;-82
2023/03/20 14:03:14;;;;;;;22.17;13.37;;;14.20;1.00;;;;;;5005095;28;20525;-81
2023/03/20 14:05:43;;;;;;;20.47;13.27;;;14.40;1.00;;;;;;5008044;28;20593;-81
2023/03/20 14:08:37;;;;;;;19.67;13.10;;;14.40;1.00;;;;;;5009633;28;20568;-81
2023/03/20 14:11:13;;;;;;;23.83;14.43;;;14.20;1.00;;;;;;4967635;28;21319;-81
2023/03/20 14:13:44;;;;;;;33.30;16.47;;;14.00;1.00;;;;;;5009564;28;20453;-81
2023/03/20 14:16:15;;;;;;;19.80;13.80;;;13.90;1.00;;;;;;5011196;28;20551;-81
2023/03/20 14:18:44;;;;;;;19.17;12.70;;;13.80;1.00;;;;;;5012806;28;20465;-80
2023/03/20 14:21:14;;;;;;;22.43;13.50;;;13.70;1.00;;;;;;5012088;28;20450;-81
2023/03/20 14:23:45;;;;;;;22.43;14.60;;;13.70;1.00;;;;;;5001403;28;20656;-81
2023/03/20 14:26:21;;;;;;;21.90;12.40;;;13.60;1.00;;;;;;5010884;28;20460;-80
2023/03/20 14:28:58;;;;;;;22.90;14.20;;;13.50;1.00;;;;;;5009753;28;20460;-80
2023/03/20 14:31:29;;;;;;;18.80;13.00;;;13.40;1.00;;;;;;5003772;28;20961;-81
2023/03/20 14:34:08;;;;;;;22.33;14.20;;;13.30;1.00;;;;;;5005974;28;20620;-79
2023/03/20 14:36:50;;;;;;;21.03;14.17;;;13.30;1.00;;;;;;5004345;28;20461;-81
2023/03/20 14:39:44;;;;;;;17.67;13.60;;;13.30;1.00;;;;;;5007953;28;20587;-80
2023/03/20 14:42:24;;;;;;;26.13;14.57;;;13.10;1.00;;;;;;5003580;28;20475;-80
2023/03/20 14:45:15;;;;;;;17.60;12.20;;;13.00;1.00;;;;;;5006045;28;20471;-80
2023/03/20 14:47:49;;;;;;;23.20;15.53;;;13.00;1.00;;;;;;4971865;28;20468;-80
2023/03/20 14:50:23;;;;;;;20.50;14.80;;;12.90;1.00;;;;;;5005564;28;21319;-80
2023/03/20 14:52:59;;;;;;;20.50;12.50;;;13.00;1.00;;;;;;5005021;28;21334;-81
2023/03/20 14:55:46;;;;;;;22.53;13.80;;;13.00;1.00;;;;;;5006280;28;20466;-80